createdAt,value
2023-04-24T00:01:15.393Z,10.13
2023-04-24T00:06:38.444Z,10.73
2023-04-24T00:12:00.358Z,10.00
2023-04-24T00:17:22.219Z,8.40
2023-04-24T00:22:44.048Z,9.63
2023-04-24T00:28:05.848Z,10.82
2023-04-24T00:33:27.680Z,8.38
2023-04-24T00:38:49.512Z,9.15
2023-04-24T00:44:11.477Z,10.20
2023-04-24T00:49:33.296Z,10.40
2023-04-24T00:54:55.104Z,7.70
2023-04-24T01:00:18.116Z,9.60
2023-04-24T01:05:40.041Z,11.63
2023-04-24T01:11:04.682Z,10.10
2023-04-24T01:16:26.706Z,10.60
2023-04-24T01:21:51.726Z,13.73
2023-04-24T01:27:14.238Z,10.15
2023-04-24T01:32:37.900Z,12.00
2023-04-24T01:37:59.854Z,8.95
2023-04-24T01:43:22.596Z,12.00
2023-04-24T01:48:46.523Z,12.10
2023-04-24T01:54:08.340Z,10.82
2023-04-24T01:59:30.962Z,11.85
2023-04-24T02:04:52.762Z,13.80
2023-04-24T02:10:14.573Z,11.32
2023-04-24T02:15:36.390Z,12.35
2023-04-24T02:20:58.228Z,11.13
2023-04-24T02:26:20.138Z,10.60
2023-04-24T02:31:41.991Z,12.20
2023-04-24T02:37:03.903Z,11.38
2023-04-24T02:42:25.749Z,12.27
2023-04-24T02:47:47.567Z,11.98
2023-04-24T02:53:09.432Z,14.13
2023-04-24T02:58:31.223Z,11.57
2023-04-24T03:03:53.230Z,15.68
2023-04-24T03:09:15.100Z,17.35
2023-04-24T03:14:36.915Z,16.50
2023-04-24T03:19:58.705Z,11.35
2023-04-24T03:25:20.556Z,13.57
2023-04-24T03:30:42.396Z,12.93
2023-04-24T03:36:04.460Z,10.98
2023-04-24T03:41:26.250Z,12.13
2023-04-24T03:46:48.018Z,15.68
2023-04-24T03:52:09.829Z,13.88
2023-04-24T03:57:31.650Z,15.63
2023-04-24T04:02:53.711Z,17.45
2023-04-24T04:08:15.916Z,12.50
2023-04-24T04:13:37.811Z,12.73
2023-04-24T04:18:59.657Z,12.70
2023-04-24T04:24:21.528Z,13.43
2023-04-24T04:29:43.473Z,18.85
2023-04-24T04:35:05.790Z,13.32
2023-04-24T04:40:27.608Z,12.50
2023-04-24T04:45:49.540Z,15.05
2023-04-24T04:51:11.344Z,17.73
2023-04-24T04:56:33.175Z,13.23
2023-04-24T05:01:54.944Z,11.45
2023-04-24T05:07:16.839Z,11.30
2023-04-24T05:12:38.632Z,10.95
2023-04-24T05:18:00.719Z,11.77
2023-04-24T05:23:22.594Z,15.63
2023-04-24T05:28:44.406Z,9.23
2023-04-24T05:34:06.817Z,8.82
2023-04-24T05:39:28.629Z,11.65
2023-04-24T05:44:52.063Z,9.63
2023-04-24T05:50:15.208Z,11.33
2023-04-24T05:55:37.690Z,7.93
2023-04-24T06:00:59.632Z,11.93
2023-04-24T06:06:21.460Z,10.23
2023-04-24T06:11:43.246Z,10.10
2023-04-24T06:17:05.061Z,8.20
2023-04-24T06:22:26.875Z,9.55
2023-04-24T06:27:48.727Z,7.65
2023-04-24T06:33:20.388Z,10.50
2023-04-24T06:38:43.695Z,9.90
2023-04-24T06:44:05.468Z,12.95
2023-04-24T06:49:27.287Z,11.35
2023-04-24T06:54:49.278Z,10.90
2023-04-24T07:00:11.756Z,11.15
2023-04-24T07:05:33.610Z,8.40
2023-04-24T07:10:55.415Z,9.50
2023-04-24T07:16:17.396Z,15.57
2023-04-24T07:21:39.310Z,9.07
2023-04-24T07:27:01.430Z,8.88
2023-04-24T07:32:23.232Z,9.82
2023-04-24T07:37:45.083Z,10.38
2023-04-24T07:43:06.995Z,8.30
2023-04-24T07:48:28.882Z,11.73
2023-04-24T07:53:50.701Z,8.38
2023-04-24T07:59:12.590Z,8.45
2023-04-24T08:04:34.858Z,5.97
2023-04-24T08:09:56.798Z,11.05
2023-04-24T08:15:18.866Z,9.15
2023-04-24T08:20:40.692Z,6.55
2023-04-24T08:26:02.634Z,8.80
2023-04-24T08:31:24.814Z,8.55
2023-04-24T08:36:47.687Z,6.82
2023-04-24T08:42:12.217Z,7.57
2023-04-24T08:47:34.589Z,9.32
2023-04-24T08:52:56.449Z,6.53
2023-04-24T08:58:18.565Z,10.77
2023-04-24T09:03:41.194Z,9.25
2023-04-24T09:09:03.785Z,11.13
2023-04-24T09:14:26.858Z,6.03
2023-04-24T09:19:48.674Z,7.43
2023-04-24T09:25:10.962Z,12.20
2023-04-24T09:30:32.993Z,9.90
2023-04-24T09:35:54.799Z,12.75
2023-04-24T09:41:16.631Z,10.18
2023-04-24T09:46:38.785Z,9.63
2023-04-24T09:52:09.252Z,9.05
2023-04-24T09:57:32.406Z,7.22
2023-04-24T10:02:58.172Z,5.95
2023-04-24T10:08:20.273Z,5.35
2023-04-24T10:13:42.350Z,7.32
2023-04-24T10:19:04.620Z,5.20
2023-04-24T10:24:26.450Z,11.38
2023-04-24T10:29:49.330Z,10.40
2023-04-24T10:35:14.346Z,10.57
2023-04-24T10:40:37.226Z,7.73
2023-04-24T10:46:04.093Z,8.48
2023-04-24T10:51:45.442Z,9.38
2023-04-24T10:57:19.309Z,6.03
2023-04-24T11:02:41.673Z,6.97
2023-04-24T11:08:15.357Z,7.68
2023-04-24T11:13:55.470Z,9.07
2023-04-24T11:19:17.229Z,8.27
2023-04-24T11:24:48.063Z,6.32
2023-04-24T11:30:11.519Z,8.27
2023-04-24T11:35:42.750Z,6.05
2023-04-24T11:41:04.630Z,8.05
2023-04-24T11:46:30.644Z,10.73
2023-04-24T11:51:58.053Z,7.18
2023-04-24T11:57:23.208Z,6.82
2023-04-24T12:02:45.474Z,6.88
2023-04-24T12:08:07.865Z,7.20
2023-04-24T12:13:29.954Z,8.10
2023-04-24T12:18:52.440Z,7.97
2023-04-24T12:24:14.468Z,6.55
2023-04-24T12:29:36.317Z,6.97
2023-04-24T12:34:59.161Z,7.80
2023-04-24T12:40:22.812Z,5.60
2023-04-24T12:45:44.932Z,5.95
2023-04-24T12:51:06.752Z,14.45
2023-04-24T12:56:28.828Z,13.88
2023-04-24T13:01:51.537Z,27.00
2023-04-24T13:07:14.248Z,16.30
2023-04-24T13:12:36.403Z,17.23
2023-04-24T13:17:58.381Z,19.92
2023-04-24T13:23:20.299Z,14.45
2023-04-24T13:28:42.112Z,6.47
2023-04-24T13:34:04.787Z,10.75
2023-04-24T13:39:27.505Z,10.85
2023-04-24T13:44:49.422Z,7.32
2023-04-24T13:50:11.585Z,9.32
2023-04-24T13:55:33.519Z,4.72
2023-04-24T14:00:56.002Z,5.78
2023-04-24T14:06:18.914Z,9.13
2023-04-24T14:11:41.073Z,10.90
2023-04-24T14:17:02.956Z,5.40
2023-04-24T14:22:24.800Z,4.95
2023-04-24T14:27:46.667Z,4.35
2023-04-24T14:33:08.536Z,5.40
2023-04-24T14:38:30.366Z,4.60
2023-04-24T14:43:52.210Z,6.18
2023-04-24T14:49:14.042Z,4.82
2023-04-24T14:54:35.879Z,4.68
2023-04-24T14:59:57.941Z,4.70
2023-04-24T15:05:20.235Z,6.35
2023-04-24T15:10:42.303Z,6.55
2023-04-24T15:16:04.291Z,6.47
2023-04-24T15:21:26.276Z,4.65
2023-04-24T15:26:48.158Z,10.35
2023-04-24T15:32:10.548Z,6.50
2023-04-24T15:37:32.682Z,4.75
2023-04-24T15:42:54.543Z,10.38
2023-04-24T15:48:16.469Z,7.95
2023-04-24T15:53:38.320Z,6.70
2023-04-24T15:59:00.160Z,4.97
2023-04-24T16:04:22.245Z,6.20
2023-04-24T16:09:44.841Z,6.35
2023-04-24T16:15:07.167Z,7.78
2023-04-24T16:20:28.989Z,4.97
2023-04-24T16:25:50.968Z,7.60
2023-04-24T16:31:12.849Z,6.55
2023-04-24T16:36:35.977Z,5.78
2023-04-24T16:41:59.790Z,5.20
2023-04-24T16:47:22.202Z,6.47
2023-04-24T16:52:44.180Z,6.50
2023-04-24T16:58:05.999Z,6.35
2023-04-24T17:03:28.028Z,7.28
2023-04-24T17:08:50.160Z,6.35
2023-04-24T17:14:12.312Z,5.93
2023-04-24T17:19:34.462Z,5.50
2023-04-24T17:24:56.299Z,5.90
2023-04-24T17:30:18.259Z,10.20
2023-04-24T17:35:40.168Z,8.18
2023-04-24T17:41:02.530Z,10.70
2023-04-24T17:46:24.493Z,8.68
2023-04-24T17:51:46.394Z,7.78
2023-04-24T17:57:08.277Z,9.23
2023-04-24T18:02:30.324Z,9.25
2023-04-24T18:07:52.172Z,5.93
2023-04-24T18:13:14.045Z,7.15
2023-04-24T18:18:35.975Z,8.25
2023-04-24T18:23:57.846Z,8.02
2023-04-24T18:29:19.715Z,8.00
2023-04-24T18:34:41.579Z,7.38
2023-04-24T18:40:03.701Z,6.60
2023-04-24T18:45:25.601Z,7.22
2023-04-24T18:50:47.451Z,8.73
2023-04-24T18:56:09.301Z,6.25
2023-04-24T19:01:31.298Z,9.35
2023-04-24T19:06:53.168Z,10.55
2023-04-24T19:12:15.119Z,7.32
2023-04-24T19:17:37.015Z,9.55
2023-04-24T19:22:58.893Z,9.45
2023-04-24T19:28:20.747Z,12.93
2023-04-24T19:33:42.581Z,8.90
2023-04-24T19:39:04.482Z,8.80
2023-04-24T19:44:26.296Z,9.15
2023-04-24T19:49:48.118Z,12.38
2023-04-24T19:55:10.128Z,12.68
2023-04-24T20:00:32.059Z,8.70
2023-04-24T20:05:54.214Z,11.50
2023-04-24T20:11:16.823Z,11.85
2023-04-24T20:16:38.709Z,11.05
2023-04-24T20:22:00.667Z,10.88
2023-04-24T20:27:22.573Z,9.45
2023-04-24T20:32:44.846Z,10.18
2023-04-24T20:38:06.807Z,8.85
2023-04-24T20:43:29.475Z,13.23
2023-04-24T20:48:51.507Z,11.48
2023-04-24T20:54:13.337Z,12.77
2023-04-24T20:59:35.548Z,12.35
2023-04-24T21:04:57.418Z,7.93
2023-04-24T21:10:19.328Z,13.05
2023-04-24T21:15:41.244Z,13.10
2023-04-24T21:21:03.240Z,11.80
2023-04-24T21:26:25.150Z,10.45
2023-04-24T21:31:47.008Z,9.63
2023-04-24T21:37:09.182Z,15.05
2023-04-24T21:42:31.348Z,13.38
2023-04-24T21:47:53.192Z,12.18
2023-04-24T21:53:15.148Z,12.85
2023-04-24T21:58:37.237Z,10.27
2023-04-24T22:03:59.461Z,9.82
2023-04-24T22:09:21.564Z,11.95
2023-04-24T22:14:43.429Z,9.57
2023-04-24T22:20:05.883Z,8.57
2023-04-24T22:25:27.730Z,9.60
2023-04-24T22:30:49.633Z,8.93
2023-04-24T22:36:11.580Z,11.07
2023-04-24T22:41:33.461Z,10.43
2023-04-24T22:46:55.717Z,11.45
2023-04-24T22:52:17.559Z,11.80
2023-04-24T22:57:40.262Z,13.75
2023-04-24T23:03:02.451Z,9.65
2023-04-24T23:08:24.549Z,10.25
2023-04-24T23:13:46.534Z,13.70
2023-04-24T23:19:08.524Z,11.80
2023-04-24T23:24:30.357Z,16.33
2023-04-24T23:29:52.214Z,15.75
2023-04-24T23:35:14.151Z,13.82
2023-04-24T23:40:36.149Z,15.30
2023-04-24T23:45:57.970Z,10.73
2023-04-24T23:51:20.036Z,11.40
2023-04-24T23:56:43.363Z,12.60
